Time;durP1;ratioP1;P1;durP2;ratioP2;P2;SDS_P1;SDS_P2;PMS_P1;PMS_P2;Temp;Humidity;BMP_temperature;BMP_pressure;BME280_temperature;BME280_humidity;BME280_pressure;Samples;Min_cycle;Max_cycle;Signal;HPM_P1;HPM_P2
2021/01/24 00:04:26;;;;;;;15.03;7.10;;;;;;;1.84;98.09;98658.25;10580247;28;20169;-62
2021/01/24 00:09:26;;;;;;;12.53;6.93;;;;;;;1.81;97.69;98660.09;10579892;28;20260;-62
2021/01/24 00:14:26;;;;;;;14.37;8.40;;;;;;;1.94;98.76;98676.06;10579655;28;20229;-60
2021/01/24 00:19:27;;;;;;;15.00;7.83;;;;;;;2.05;98.57;98672.84;10580369;28;20169;-62
2021/01/24 00:24:27;;;;;;;10.53;7.77;;;;;;;2.15;98.32;98680.13;10579754;28;20203;-62
2021/01/24 00:29:28;;;;;;;12.40;8.50;;;;;;;2.21;97.63;98689.44;10579886;28;20181;-62
2021/01/24 00:34:28;;;;;;;19.20;9.60;;;;;;;2.24;97.12;98673.50;10579121;28;20228;-62
2021/01/24 00:39:29;;;;;;;11.60;7.43;;;;;;;2.23;96.91;98681.47;10579724;28;20259;-57
2021/01/24 00:44:29;;;;;;;11.67;7.27;;;;;;;2.13;97.17;98666.22;10579513;28;20623;-58
2021/01/24 00:49:30;;;;;;;9.60;6.27;;;;;;;2.07;96.66;98661.28;10579310;28;20251;-57
2021/01/24 00:54:30;;;;;;;11.83;6.73;;;;;;;2.04;97.10;98660.63;10578433;28;20198;-62
2021/01/24 00:59:31;;;;;;;9.53;7.17;;;;;;;1.95;96.91;98645.34;10578259;28;20184;-59
2021/01/24 01:04:31;;;;;;;11.23;7.40;;;;;;;1.95;97.27;98640.09;10576949;28;20205;-58
2021/01/24 01:09:31;;;;;;;10.57;6.93;;;;;;;1.93;97.82;98636.72;10578743;28;20181;-62
2021/01/24 01:14:32;;;;;;;12.10;6.77;;;;;;;1.83;97.92;98625.00;10577659;28;20229;-62
2021/01/24 01:19:32;;;;;;;11.80;7.30;;;;;;;1.73;97.89;98629.91;10578489;28;20174;-63
2021/01/24 01:24:33;;;;;;;9.90;7.20;;;;;;;1.69;99.12;98631.03;10578552;28;20454;-62
2021/01/24 01:29:33;;;;;;;9.90;7.10;;;;;;;1.68;98.82;98617.03;10577678;28;20310;-63
2021/01/24 01:34:34;;;;;;;9.63;6.43;;;;;;;1.65;99.30;98611.09;10576616;28;20236;-62
2021/01/24 01:39:34;;;;;;;8.00;5.77;;;;;;;1.59;99.62;98600.91;10585008;28;20178;-58
2021/01/24 01:44:35;;;;;;;11.70;6.60;;;;;;;1.57;98.84;98611.50;10585849;28;20262;-58
2021/01/24 01:49:36;;;;;;;8.73;6.57;;;;;;;1.53;99.40;98602.13;10586454;28;20165;-59
2021/01/24 01:54:36;;;;;;;10.27;6.83;;;;;;;1.51;99.52;98617.13;10586079;28;20258;-58
2021/01/24 01:59:37;;;;;;;9.57;6.23;;;;;;;1.51;100.00;98614.50;10584683;28;20698;-58
2021/01/24 02:05:04;;;;;;;10.80;6.73;;;;;;;1.53;100.00;98609.16;10584931;28;20177;-58
2021/01/24 02:10:14;;;;;;;9.23;7.20;;;;;;;1.55;100.00;98599.41;10578888;28;20285;-60
2021/01/24 02:15:19;;;;;;;9.23;6.70;;;;;;;1.54;100.00;98593.31;10583330;28;20259;-59
2021/01/24 02:20:33;;;;;;;10.47;7.13;;;;;;;1.52;100.00;98592.53;10584373;28;20178;-57
2021/01/24 02:25:40;;;;;;;11.30;7.20;;;;;;;1.48;100.00;98582.25;10566772;28;20170;-60
2021/01/24 02:30:41;;;;;;;10.40;7.00;;;;;;;1.33;100.00;98562.94;10584705;28;20202;-58
2021/01/24 02:35:44;;;;;;;13.73;8.60;;;;;;;1.27;100.00;98573.78;10582500;28;20237;-58
2021/01/24 02:40:44;;;;;;;14.17;8.73;;;;;;;1.27;100.00;98574.63;10582660;28;20178;-57
2021/01/24 02:45:46;;;;;;;12.17;8.60;;;;;;;1.31;100.00;98575.31;10582300;28;20524;-58
2021/01/24 02:50:47;;;;;;;12.00;7.20;;;;;;;1.25;100.00;98549.38;10581654;28;20752;-58
2021/01/24 02:55:48;;;;;;;13.57;8.67;;;;;;;1.25;100.00;98559.88;10582986;28;20659;-58
2021/01/24 03:00:48;;;;;;;13.53;9.10;;;;;;;1.27;100.00;98565.91;10582219;28;20264;-58
2021/01/24 03:05:50;;;;;;;13.87;9.10;;;;;;;1.36;100.00;98573.28;10583177;28;20182;-58
2021/01/24 03:10:50;;;;;;;13.77;9.00;;;;;;;1.46;100.00;98571.84;10583180;28;20170;-58
2021/01/24 03:15:51;;;;;;;16.90;9.53;;;;;;;1.48;100.00;98572.59;10580817;28;20236;-57
2021/01/24 03:20:53;;;;;;;16.97;11.03;;;;;;;1.69;100.00;98558.25;10580905;28;20182;-58
2021/01/24 03:25:54;;;;;;;21.23;10.67;;;;;;;1.78;100.00;98572.69;10581394;28;20182;-59
2021/01/24 03:30:55;;;;;;;16.20;9.97;;;;;;;1.81;100.00;98559.38;10581101;28;20186;-59
2021/01/24 03:35:55;;;;;;;16.13;10.50;;;;;;;1.90;100.00;98560.63;10581465;28;20209;-60
2021/01/24 03:40:56;;;;;;;14.87;10.03;;;;;;;1.97;100.00;98570.69;10581219;28;20170;-59
2021/01/24 03:45:57;;;;;;;16.67;10.23;;;;;;;2.02;100.00;98567.81;10581190;28;20198;-62
2021/01/24 03:50:58;;;;;;;13.93;9.83;;;;;;;1.99;100.00;98554.81;10581093;28;20219;-61
2021/01/24 03:55:58;;;;;;;14.73;9.83;;;;;;;1.93;100.00;98570.97;10580535;28;20279;-61
2021/01/24 04:00:59;;;;;;;15.53;9.60;;;;;;;1.97;100.00;98565.44;10580222;28;20193;-61
2021/01/24 04:05:59;;;;;;;16.03;9.80;;;;;;;2.05;100.00;98583.41;10580075;28;20653;-61
2021/01/24 04:11:01;;;;;;;16.77;9.93;;;;;;;2.07;100.00;98576.25;10580234;28;20170;-60
2021/01/24 04:16:02;;;;;;;16.70;10.17;;;;;;;2.01;100.00;98593.25;10579595;28;20225;-61
2021/01/24 04:21:03;;;;;;;19.17;11.60;;;;;;;1.97;100.00;98580.34;10579800;28;20189;-62
2021/01/24 04:26:03;;;;;;;15.20;10.47;;;;;;;1.96;100.00;98586.56;10579108;28;20170;-61
2021/01/24 04:31:04;;;;;;;18.30;10.80;;;;;;;1.98;100.00;98587.31;10579827;28;20184;-61
2021/01/24 04:36:06;;;;;;;13.83;10.03;;;;;;;2.04;100.00;98582.56;10580007;28;20547;-61
2021/01/24 04:41:06;;;;;;;17.40;10.77;;;;;;;2.04;100.00;98577.31;10579684;28;20204;-62
2021/01/24 04:46:08;;;;;;;15.93;10.43;;;;;;;2.06;100.00;98582.44;10577780;28;20583;-61
2021/01/24 04:51:08;;;;;;;15.27;10.63;;;;;;;1.99;100.00;98557.44;10579381;28;20176;-62
2021/01/24 04:56:10;;;;;;;14.43;10.03;;;;;;;1.85;100.00;98557.38;10579005;28;20217;-61
2021/01/24 05:01:11;;;;;;;16.33;10.60;;;;;;;1.79;100.00;98555.97;10578440;27;20666;-61
2021/01/24 05:06:12;;;;;;;19.30;11.07;;;;;;;1.70;100.00;98557.31;10577062;28;20170;-61
2021/01/24 05:11:13;;;;;;;17.73;11.33;;;;;;;1.63;100.00;98555.97;10578089;28;20178;-62
2021/01/24 05:16:13;;;;;;;14.33;10.23;;;;;;;1.61;100.00;98549.97;10578249;28;20240;-61
2021/01/24 05:21:14;;;;;;;18.87;10.67;;;;;;;1.61;100.00;98557.84;10578677;28;20192;-62
2021/01/24 05:26:14;;;;;;;18.87;11.13;;;;;;;1.66;100.00;98560.22;10578322;28;20572;-63
2021/01/24 05:31:22;;;;;;;16.47;10.47;;;;;;;1.69;100.00;98554.81;10577171;28;20174;-62
2021/01/24 05:36:23;;;;;;;18.40;11.00;;;;;;;1.67;100.00;98551.41;10578576;28;20198;-62
2021/01/24 05:41:29;;;;;;;15.23;10.70;;;;;;;1.62;100.00;98538.50;10577366;28;20173;-61
2021/01/24 05:46:33;;;;;;;16.33;10.77;;;;;;;1.66;100.00;98539.19;10576483;28;20209;-62
2021/01/24 05:51:34;;;;;;;17.90;10.97;;;;;;;1.55;100.00;98526.66;10577322;28;20557;-58
2021/01/24 05:56:34;;;;;;;16.63;11.17;;;;;;;1.58;100.00;98544.00;10577390;28;20552;-58
2021/01/24 06:01:35;;;;;;;18.97;11.43;;;;;;;1.52;100.00;98536.50;10577321;28;20192;-58
2021/01/24 06:06:35;;;;;;;25.57;13.53;;;;;;;1.51;100.00;98535.63;10576045;28;20760;-57
2021/01/24 06:11:37;;;;;;;19.60;12.73;;;;;;;1.55;100.00;98536.31;10577643;28;20178;-59
2021/01/24 06:16:39;;;;;;;44.77;20.10;;;;;;;1.57;100.00;98532.66;10576828;28;20229;-58
2021/01/24 06:21:48;;;;;;;23.33;13.70;;;;;;;1.54;100.00;98530.22;10576365;28;20169;-57
2021/01/24 06:26:53;;;;;;;26.20;15.43;;;;;;;1.46;100.00;98516.66;10583297;28;20473;-59
2021/01/24 06:31:54;;;;;;;18.90;12.57;;;;;;;1.43;100.00;98516.84;10583551;28;20187;-64
2021/01/24 06:37:03;;;;;;;21.00;12.27;;;;;;;1.36;100.00;98520.72;10582924;28;20320;-64
2021/01/24 06:42:04;;;;;;;26.10;13.40;;;;;;;1.29;100.00;98517.59;10583699;28;20578;-63
2021/01/24 06:47:24;;;;;;;22.33;12.47;;;;;;;1.28;100.00;98512.44;10583775;28;20162;-63
2021/01/24 06:52:24;;;;;;;16.77;11.33;;;;;;;1.25;100.00;98517.84;10583543;28;20622;-63
2021/01/24 06:57:30;;;;;;;20.50;11.93;;;;;;;1.26;100.00;98509.03;10583678;28;20204;-63
2021/01/24 07:02:37;;;;;;;17.10;10.60;;;;;;;1.28;100.00;98515.06;10582695;28;20182;-64
2021/01/24 07:07:42;;;;;;;15.63;9.87;;;;;;;1.29;100.00;98503.63;10582832;28;20178;-64
2021/01/24 07:12:45;;;;;;;16.53;10.50;;;;;;;1.31;100.00;98517.53;10582734;28;20166;-59
2021/01/24 07:17:56;;;;;;;23.77;12.80;;;;;;;1.32;100.00;98508.72;10581798;28;20222;-59
2021/01/24 07:22:58;;;;;;;18.13;10.10;;;;;;;1.32;100.00;98513.97;10582196;28;20178;-61
2021/01/24 07:27:59;;;;;;;19.47;11.07;;;;;;;1.33;100.00;98510.38;10580503;28;20178;-64
2021/01/24 07:32:59;;;;;;;17.20;10.43;;;;;;;1.39;100.00;98510.03;10580504;27;20620;-59
2021/01/24 07:38:00;;;;;;;16.03;10.60;;;;;;;1.47;100.00;98502.56;10581825;28;20210;-63
2021/01/24 07:43:01;;;;;;;16.87;11.40;;;;;;;1.51;100.00;98498.84;10580936;28;20157;-59
2021/01/24 07:48:02;;;;;;;22.63;12.57;;;;;;;1.53;100.00;98496.13;10575100;28;20496;-59
2021/01/24 07:53:03;;;;;;;18.30;11.57;;;;;;;1.54;100.00;98493.44;10539712;28;20178;-60
2021/01/24 07:58:04;;;;;;;23.37;13.93;;;;;;;1.54;100.00;98493.44;10580305;28;20209;-61
2021/01/24 08:03:05;;;;;;;18.00;12.57;;;;;;;1.56;100.00;98496.81;10580574;28;20162;-59
2021/01/24 08:08:05;;;;;;;18.70;11.10;;;;;;;1.64;100.00;98484.06;10580834;28;20323;-64
2021/01/24 08:13:06;;;;;;;19.27;11.80;;;;;;;1.69;100.00;98489.91;10580700;28;20182;-64
2021/01/24 08:18:06;;;;;;;14.57;9.87;;;;;;;1.77;100.00;98485.06;10578294;28;20580;-62
2021/01/24 08:23:07;;;;;;;20.03;11.70;;;;;;;1.90;100.00;98479.09;10579521;28;20170;-64
2021/01/24 08:28:08;;;;;;;14.60;10.67;;;;;;;1.96;100.00;98468.19;10580323;28;20264;-64
2021/01/24 08:33:12;;;;;;;16.57;11.50;;;;;;;2.06;100.00;98469.34;10569068;28;20192;-59
2021/01/24 08:38:13;;;;;;;15.67;11.27;;;;;;;2.08;100.00;98456.94;10579133;28;20603;-59
2021/01/24 08:43:15;;;;;;;17.50;11.17;;;;;;;2.00;100.00;98446.03;10579126;28;20182;-59
2021/01/24 08:48:16;;;;;;;17.20;12.23;;;;;;;2.04;100.00;98455.47;10563137;28;20190;-64
2021/01/24 08:53:27;;;;;;;14.70;10.57;;;;;;;2.05;100.00;98452.72;10518811;28;20190;-64
2021/01/24 08:58:28;;;;;;;18.60;13.33;;;;;;;2.06;100.00;98450.94;10542575;28;20307;-61
2021/01/24 09:03:28;;;;;;;19.93;12.20;;;;;;;2.08;100.00;98444.66;10536702;28;20656;-61
2021/01/24 09:08:29;;;;;;;25.13;14.43;;;;;;;2.12;100.00;98443.53;10536655;28;20216;-59
2021/01/24 09:13:30;;;;;;;21.10;13.17;;;;;;;2.10;100.00;98452.44;10520996;28;20201;-59
2021/01/24 09:18:30;;;;;;;20.53;13.97;;;;;;;2.09;100.00;98445.50;10520423;28;20306;-59
2021/01/24 09:23:31;;;;;;;22.70;14.10;;;;;;;2.10;100.00;98444.56;10516790;28;20519;-59
2021/01/24 09:28:31;;;;;;;22.37;14.13;;;;;;;2.10;100.00;98440.13;10534046;28;20661;-59
2021/01/24 09:33:31;;;;;;;25.30;14.03;;;;;;;2.11;100.00;98427.84;10553883;28;20323;-58
2021/01/24 09:38:32;;;;;;;22.90;15.00;;;;;;;2.07;100.00;98423.69;10574163;28;20212;-57
2021/01/24 09:43:32;;;;;;;22.40;14.17;;;;;;;2.04;100.00;98423.91;10573671;28;20615;-58
2021/01/24 09:48:33;;;;;;;22.50;14.67;;;;;;;1.97;100.00;98425.19;10574045;28;20186;-59
2021/01/24 09:53:36;;;;;;;22.80;14.07;;;;;;;1.99;100.00;98425.94;10577485;28;20198;-60
2021/01/24 09:58:37;;;;;;;21.27;13.37;;;;;;;1.95;100.00;98414.75;10580836;28;20193;-60
2021/01/24 10:03:37;;;;;;;21.17;14.10;;;;;;;1.87;100.00;98410.88;10585514;28;20178;-60
2021/01/24 10:08:38;;;;;;;23.27;14.37;;;;;;;1.78;100.00;98401.78;10586080;28;20174;-60
2021/01/24 10:13:40;;;;;;;20.93;13.20;;;;;;;1.71;100.00;98401.28;10566862;28;20714;-60
2021/01/24 10:18:40;;;;;;;19.40;12.47;;;;;;;1.67;100.00;98389.28;10577821;28;20872;-61
2021/01/24 10:23:41;;;;;;;22.87;14.17;;;;;;;1.68;100.00;98385.72;10548297;28;20276;-62
2021/01/24 10:28:41;;;;;;;20.50;13.70;;;;;;;1.81;100.00;98386.63;10542417;28;20628;-59
2021/01/24 10:33:42;;;;;;;22.90;13.10;;;;;;;1.94;100.00;98385.91;10542704;28;20173;-58
2021/01/24 10:38:46;;;;;;;22.83;14.40;;;;;;;2.03;100.00;98374.84;10540487;28;20744;-58
2021/01/24 10:43:46;;;;;;;23.23;13.63;;;;;;;2.16;100.00;98367.91;10566760;28;20185;-60
2021/01/24 10:48:46;;;;;;;24.47;14.73;;;;;;;2.24;100.00;98354.28;10583473;28;20478;-58
2021/01/24 10:53:47;;;;;;;25.30;15.67;;;;;;;2.35;100.00;98355.28;10542810;28;20175;-59
2021/01/24 10:58:47;;;;;;;25.73;17.17;;;;;;;2.45;100.00;98343.25;10550214;28;20236;-58
2021/01/24 11:03:48;;;;;;;27.60;14.93;;;;;;;2.56;100.00;98347.81;10582852;28;20252;-59
2021/01/24 11:08:48;;;;;;;26.67;15.23;;;;;;;2.54;100.00;98345.28;10582390;28;20232;-59
2021/01/24 11:13:49;;;;;;;24.43;14.80;;;;;;;2.54;100.00;98345.28;10582980;28;20193;-58
2021/01/24 11:18:49;;;;;;;20.17;13.73;;;;;;;2.42;100.00;98346.06;10582058;28;20777;-58
2021/01/24 11:23:50;;;;;;;23.13;14.73;;;;;;;2.38;100.00;98339.31;10582645;28;20185;-59
2021/01/24 11:28:53;;;;;;;21.40;14.27;;;;;;;2.33;100.00;98324.75;10581695;28;20638;-59
2021/01/24 11:33:53;;;;;;;20.33;13.57;;;;;;;2.39;100.00;98327.84;10578984;28;20228;-58
2021/01/24 11:38:54;;;;;;;20.80;13.30;;;;;;;2.46;100.00;98323.03;10581286;28;20239;-57
2021/01/24 11:43:54;;;;;;;18.70;12.13;;;;;;;2.47;100.00;98317.69;10581082;28;20166;-64
2021/01/24 11:48:55;;;;;;;21.67;13.97;;;;;;;2.49;100.00;98326.31;10581815;28;20272;-61
2021/01/24 11:53:55;;;;;;;26.87;15.70;;;;;;;2.55;100.00;98314.53;10578339;28;20741;-60
2021/01/24 11:58:56;;;;;;;19.37;13.33;;;;;;;2.56;100.00;98325.91;10577154;28;20293;-60
2021/01/24 12:03:56;;;;;;;20.33;13.40;;;;;;;2.57;100.00;98343.41;10577113;28;20162;-63
2021/01/24 12:08:57;;;;;;;53.87;23.37;;;;;;;2.43;100.00;98345.13;10579861;28;20535;-61
2021/01/24 12:13:57;;;;;;;25.03;12.73;;;;;;;2.26;100.00;98339.25;10579749;28;20587;-61
2021/01/24 12:18:58;;;;;;;23.97;13.13;;;;;;;2.11;100.00;98343.66;10578905;28;20252;-62
2021/01/24 12:23:58;;;;;;;26.40;14.87;;;;;;;1.96;100.00;98315.66;10579102;28;20181;-62
2021/01/24 12:28:59;;;;;;;20.10;12.60;;;;;;;1.76;100.00;98316.88;10580331;28;20264;-62
2021/01/24 12:33:59;;;;;;;21.93;12.63;;;;;;;1.71;100.00;98321.56;10580088;28;20623;-62
2021/01/24 12:39:00;;;;;;;20.87;13.07;;;;;;;1.68;100.00;98327.88;10579460;28;20819;-62
2021/01/24 12:44:00;;;;;;;20.90;13.80;;;;;;;1.73;100.00;98319.69;10579029;28;20201;-61
2021/01/24 12:49:00;;;;;;;37.53;18.13;;;;;;;1.76;100.00;98325.63;10578937;28;20177;-57
2021/01/24 12:54:01;;;;;;;31.13;16.70;;;;;;;1.84;100.00;98326.94;10578872;28;20203;-62
2021/01/24 12:59:01;;;;;;;20.87;11.80;;;;;;;1.79;100.00;98335.09;10578368;28;20209;-63
2021/01/24 13:04:03;;;;;;;19.40;11.53;;;;;;;1.65;100.00;98317.53;10578662;28;20174;-62
2021/01/24 13:09:04;;;;;;;30.50;15.20;;;;;;;1.58;100.00;98316.19;10578255;28;20179;-61
2021/01/24 13:14:04;;;;;;;20.37;12.10;;;;;;;1.57;100.00;98326.81;10578877;28;20273;-54
2021/01/24 13:19:04;;;;;;;21.53;12.57;;;;;;;1.51;100.00;98325.38;10576668;28;20596;-54
2021/01/24 13:24:05;;;;;;;21.53;13.27;;;;;;;1.41;100.00;98345.28;10577993;28;20181;-55
2021/01/24 13:29:06;;;;;;;18.87;12.13;;;;;;;1.37;100.00;98344.59;10578123;28;20162;-61
2021/01/24 13:34:07;;;;;;;26.07;14.27;;;;;;;1.30;100.00;98358.19;10584596;28;20272;-59
2021/01/24 13:39:07;;;;;;;26.83;14.60;;;;;;;1.25;100.00;98371.59;10586482;28;20181;-61
2021/01/24 13:44:08;;;;;;;26.53;14.50;;;;;;;1.20;100.00;98368.38;10586879;27;20184;-57
2021/01/24 13:49:08;;;;;;;29.30;15.57;;;;;;;1.18;100.00;98385.16;10586298;28;20694;-57
2021/01/24 13:54:09;;;;;;;21.83;11.73;;;;;;;1.08;100.00;98380.44;10585991;28;20213;-58
2021/01/24 13:59:09;;;;;;;25.00;13.87;;;;;;;1.02;100.00;98380.78;10585530;28;20208;-58
2021/01/24 14:04:09;;;;;;;22.33;13.07;;;;;;;1.01;100.00;98389.59;10585493;28;20272;-57
2021/01/24 14:09:11;;;;;;;25.70;13.53;;;;;;;1.01;100.00;98394.84;10585230;28;20182;-58
2021/01/24 14:14:12;;;;;;;25.90;12.50;;;;;;;0.98;100.00;98394.16;10548283;28;20564;-65
2021/01/24 14:19:13;;;;;;;22.00;12.83;;;;;;;0.98;100.00;98400.25;10527573;28;20194;-57
2021/01/24 14:24:13;;;;;;;27.40;14.97;;;;;;;1.00;100.00;98406.28;10537086;28;20518;-56
2021/01/24 14:29:14;;;;;;;27.27;13.77;;;;;;;1.03;100.00;98407.88;10553017;28;20174;-57
2021/01/24 14:34:14;;;;;;;25.70;15.37;;;;;;;0.96;100.00;98401.28;10570670;28;20182;-58
2021/01/24 14:39:16;;;;;;;21.03;11.60;;;;;;;1.02;100.00;98414.91;10541931;28;20185;-59
2021/01/24 14:44:16;;;;;;;21.83;11.93;;;;;;;0.96;100.00;98417.06;10541295;28;20212;-57
2021/01/24 14:49:16;;;;;;;20.50;11.97;;;;;;;0.93;100.00;98428.56;10541957;28;20527;-58
2021/01/24 14:54:17;;;;;;;20.73;11.63;;;;;;;0.88;100.00;98430.59;10541968;28;20200;-57
2021/01/24 14:59:17;;;;;;;26.60;13.90;;;;;;;0.85;100.00;98443.88;10559229;28;20182;-58
2021/01/24 15:04:18;;;;;;;25.33;14.17;;;;;;;0.86;100.00;98458.69;10576630;28;20268;-65
2021/01/24 15:09:18;;;;;;;25.37;14.03;;;;;;;0.82;100.00;98477.34;10582925;28;20539;-54
2021/01/24 15:14:19;;;;;;;22.47;13.23;;;;;;;0.76;100.00;98461.91;10582345;28;20181;-67
2021/01/24 15:19:20;;;;;;;23.40;13.20;;;;;;;0.71;100.00;98475.31;10581522;28;20749;-59
2021/01/24 15:24:21;;;;;;;31.43;17.07;;;;;;;0.72;100.00;98482.25;10579331;28;20690;-59
2021/01/24 15:29:21;;;;;;;34.43;16.13;;;;;;;0.52;100.00;98459.69;10582092;28;20257;-58
2021/01/24 15:34:21;;;;;;;37.93;18.20;;;;;;;0.76;100.00;98499.50;10581735;28;20637;-58
2021/01/24 15:39:22;;;;;;;43.83;20.10;;;;;;;0.82;100.00;98499.19;10581013;28;20170;-57
2021/01/24 15:44:22;;;;;;;40.57;19.87;;;;;;;0.85;100.00;98496.38;10579663;28;20226;-57
2021/01/24 15:49:24;;;;;;;40.17;20.87;;;;;;;0.85;100.00;98501.63;10581243;28;20182;-57
2021/01/24 15:54:26;;;;;;;39.30;18.97;;;;;;;0.83;100.00;98505.28;10537915;28;20214;-57
2021/01/24 15:59:26;;;;;;;38.03;19.20;;;;;;;0.80;100.00;98506.28;10520808;28;20186;-55
2021/01/24 16:04:26;;;;;;;41.87;18.67;;;;;;;0.83;100.00;98521.91;10526646;28;20608;-54
2021/01/24 16:09:27;;;;;;;42.37;19.67;;;;;;;0.80;100.00;98534.31;10519267;28;20612;-57
2021/01/24 16:14:28;;;;;;;43.20;19.40;;;;;;;0.80;100.00;98537.81;10528721;28;20178;-57
2021/01/24 16:19:29;;;;;;;44.93;20.93;;;;;;;0.87;100.00;98530.44;10533008;28;20175;-56
2021/01/24 16:24:30;;;;;;;43.83;20.17;;;;;;;0.90;100.00;98544.25;10530681;28;20190;-56
2021/01/24 16:29:30;;;;;;;34.47;18.93;;;;;;;1.00;100.00;98561.19;10527096;28;20191;-56
2021/01/24 16:34:31;;;;;;;34.73;18.10;;;;;;;1.04;100.00;98554.88;10526142;28;20173;-57
2021/01/24 16:39:33;;;;;;;40.90;18.77;;;;;;;1.11;100.00;98542.25;10528022;28;20181;-55
2021/01/24 16:44:33;;;;;;;48.40;20.93;;;;;;;1.12;100.00;98548.34;10538107;28;20197;-57
2021/01/24 16:49:35;;;;;;;49.70;22.97;;;;;;;1.14;100.00;98557.00;10531067;28;20185;-57
2021/01/24 16:54:39;;;;;;;46.30;21.63;;;;;;;1.18;100.00;98559.38;10525787;28;20243;-57
2021/01/24 16:59:39;;;;;;;50.10;23.63;;;;;;;1.24;100.00;98589.72;10527329;28;20214;-55
2021/01/24 17:04:40;;;;;;;51.23;21.30;;;;;;;1.29;100.00;98574.56;10518927;28;20196;-59
2021/01/24 17:09:41;;;;;;;44.37;20.83;;;;;;;1.25;100.00;98575.63;10528868;28;20173;-62
2021/01/24 17:14:41;;;;;;;47.33;21.23;;;;;;;1.35;100.00;98571.56;10517334;28;20705;-56
2021/01/24 17:19:43;;;;;;;46.00;20.87;;;;;;;1.37;100.00;98577.59;10542831;28;20210;-57
2021/01/24 17:24:43;;;;;;;50.27;21.63;;;;;;;1.41;100.00;98587.03;10528671;28;20209;-58
2021/01/24 17:29:43;;;;;;;48.03;21.93;;;;;;;1.40;100.00;98580.06;10529855;28;20182;-59
2021/01/24 17:34:44;;;;;;;45.70;21.73;;;;;;;1.41;100.00;98576.50;10532292;28;20243;-58
2021/01/24 17:39:44;;;;;;;44.13;20.50;;;;;;;1.44;100.00;98578.97;10531962;28;20251;-56
2021/01/24 17:44:46;;;;;;;49.13;22.23;;;;;;;1.47;100.00;98580.56;10539427;28;20193;-58
2021/01/24 17:49:47;;;;;;;50.90;23.60;;;;;;;1.48;100.00;98585.75;10530468;28;20178;-57
2021/01/24 17:54:47;;;;;;;58.10;25.17;;;;;;;1.51;100.00;98579.47;10519529;28;20241;-58
2021/01/24 17:59:48;;;;;;;54.07;24.13;;;;;;;1.51;100.00;98582.94;10512703;28;20191;-56
2021/01/24 18:04:49;;;;;;;53.77;25.23;;;;;;;1.53;100.00;98588.97;10530623;28;20962;-57
2021/01/24 18:09:49;;;;;;;50.13;22.53;;;;;;;1.53;100.00;98581.09;10523011;28;20829;-56
2021/01/24 18:14:50;;;;;;;41.60;21.10;;;;;;;1.58;100.00;98591.31;10509594;28;20250;-56
2021/01/24 18:19:50;;;;;;;40.63;20.07;;;;;;;1.59;100.00;98586.00;10540122;28;20194;-57
2021/01/24 18:24:51;;;;;;;42.87;20.23;;;;;;;1.61;100.00;98583.28;10508476;28;20254;-60
2021/01/24 18:29:52;;;;;;;44.23;19.27;;;;;;;1.65;100.00;98575.16;10526319;28;20178;-58
2021/01/24 18:34:53;;;;;;;41.63;19.57;;;;;;;1.66;100.00;98566.34;10538030;28;20198;-60
2021/01/24 18:39:53;;;;;;;36.70;19.27;;;;;;;1.67;100.00;98557.50;10525971;28;20251;-61
2021/01/24 18:44:54;;;;;;;42.17;19.60;;;;;;;1.69;100.00;98566.13;10510773;28;20617;-59
2021/01/24 18:49:54;;;;;;;32.70;16.90;;;;;;;1.71;100.00;98569.53;10525311;28;20181;-60
2021/01/24 18:54:55;;;;;;;35.83;16.70;;;;;;;1.71;100.00;98561.66;10521675;28;20555;-58
2021/01/24 18:59:56;;;;;;;38.13;18.33;;;;;;;1.69;100.00;98560.88;10524124;28;20507;-58
2021/01/24 19:04:57;;;;;;;32.23;16.90;;;;;;;1.68;100.00;98567.09;10534623;28;20649;-58
2021/01/24 19:09:59;;;;;;;37.20;17.90;;;;;;;1.67;100.00;98583.81;10531430;28;20210;-55
2021/01/24 19:15:00;;;;;;;34.63;15.43;;;;;;;1.66;100.00;98587.38;10520325;28;20228;-59
2021/01/24 19:20:01;;;;;;;33.97;17.40;;;;;;;1.63;100.00;98574.38;10523464;28;20900;-57
2021/01/24 19:25:04;;;;;;;30.50;15.73;;;;;;;1.65;100.00;98590.91;10513368;28;20178;-55
2021/01/24 19:30:05;;;;;;;31.33;15.67;;;;;;;1.68;100.00;98601.28;10537848;28;20622;-59
2021/01/24 19:35:07;;;;;;;30.87;14.97;;;;;;;1.69;100.00;98597.69;10544075;28;20209;-59
2021/01/24 19:40:08;;;;;;;26.87;13.90;;;;;;;1.66;100.00;98587.38;10549546;28;20573;-63
2021/01/24 19:45:09;;;;;;;29.43;13.33;;;;;;;1.64;100.00;98583.13;10575039;28;20204;-61
2021/01/24 19:50:10;;;;;;;26.93;13.57;;;;;;;1.65;100.00;98590.91;10581259;28;20268;-60
2021/01/24 19:55:13;;;;;;;26.40;13.87;;;;;;;1.67;100.00;98602.22;10617415;27;20344;-62
2021/01/24 20:00:15;;;;;;;26.63;13.70;;;;;;;1.68;100.00;98611.78;10592978;27;20194;-58
2021/01/24 20:05:16;;;;;;;25.13;12.30;;;;;;;1.64;100.00;98604.16;10537382;28;20174;-55
2021/01/24 20:10:17;;;;;;;28.60;14.40;;;;;;;1.61;100.00;98615.66;10539236;28;20166;-58
2021/01/24 20:15:18;;;;;;;25.80;11.77;;;;;;;1.60;100.00;98627.13;10538067;28;20242;-61
2021/01/24 20:20:18;;;;;;;28.07;13.23;;;;;;;1.62;100.00;98627.88;10538071;28;20194;-61
2021/01/24 20:25:18;;;;;;;20.77;10.97;;;;;;;1.62;100.00;98635.78;10538365;28;20167;-58
2021/01/24 20:30:23;;;;;;;25.03;12.87;;;;;;;1.61;99.84;98634.06;10536504;28;20530;-62
2021/01/24 20:35:24;;;;;;;23.20;12.20;;;;;;;1.64;100.00;98638.31;10537138;28;20600;-53
2021/01/24 20:40:24;;;;;;;20.50;12.30;;;;;;;1.64;100.00;98626.03;10535376;28;20257;-55
2021/01/24 20:45:25;;;;;;;25.83;12.77;;;;;;;1.65;99.67;98621.63;10537103;28;20170;-61
2021/01/24 20:50:25;;;;;;;17.33;9.03;;;;;;;1.67;99.02;98622.38;10535474;28;20175;-61
2021/01/24 20:55:26;;;;;;;14.77;8.83;;;;;;;1.59;98.90;98608.81;10537116;28;20603;-61
2021/01/24 21:00:28;;;;;;;15.43;9.53;;;;;;;1.63;98.78;98621.69;10537398;28;20170;-54
2021/01/24 21:05:28;;;;;;;17.50;9.70;;;;;;;1.63;99.13;98631.38;10537148;28;20175;-54
2021/01/24 21:10:29;;;;;;;18.37;9.83;;;;;;;1.61;98.68;98623.56;10536262;28;20182;-62
2021/01/24 21:15:29;;;;;;;20.00;10.90;;;;;;;1.60;98.71;98616.59;10517591;28;20225;-63
2021/01/24 21:20:29;;;;;;;18.20;9.93;;;;;;;1.64;97.82;98639.16;10536554;28;20192;-59
2021/01/24 21:25:30;;;;;;;22.50;10.93;;;;;;;1.64;98.69;98636.53;10535804;28;20179;-62
2021/01/24 21:30:30;;;;;;;19.20;10.17;;;;;;;1.61;98.34;98644.59;10535893;28;20257;-63
2021/01/24 21:35:31;;;;;;;19.17;10.37;;;;;;;1.60;99.10;98632.38;10535862;28;20197;-62
2021/01/24 21:40:31;;;;;;;19.17;10.67;;;;;;;1.61;98.80;98636.69;10535804;28;20170;-58
2021/01/24 21:45:32;;;;;;;21.17;10.63;;;;;;;1.67;98.37;98652.16;10536298;28;20174;-62
2021/01/24 21:50:32;;;;;;;20.53;11.33;;;;;;;1.67;98.90;98641.63;10535704;28;20640;-62
2021/01/24 21:55:33;;;;;;;23.53;11.90;;;;;;;1.64;98.54;98636.53;10542463;28;20206;-58
2021/01/24 22:00:33;;;;;;;26.47;12.67;;;;;;;1.66;98.76;98637.31;10543144;28;20497;-60
2021/01/24 22:05:34;;;;;;;24.93;12.77;;;;;;;1.68;98.74;98638.06;10544088;28;20178;-55
2021/01/24 22:10:34;;;;;;;24.97;13.43;;;;;;;1.68;98.98;98631.97;10542138;28;20265;-62
2021/01/24 22:15:35;;;;;;;32.07;15.43;;;;;;;1.65;98.78;98648.75;10543133;28;20241;-60
2021/01/24 22:20:36;;;;;;;33.50;15.87;;;;;;;1.62;99.68;98638.41;10543425;28;20201;-59
2021/01/24 22:25:36;;;;;;;28.53;14.33;;;;;;;1.59;99.70;98633.31;10542546;28;20183;-61
2021/01/24 22:30:36;;;;;;;26.70;13.47;;;;;;;1.53;99.19;98628.41;10543288;28;20178;-61
2021/01/24 22:35:37;;;;;;;28.57;15.33;;;;;;;1.45;99.73;98639.31;10541092;28;20186;-57
2021/01/24 22:40:38;;;;;;;30.43;15.53;;;;;;;1.41;99.18;98640.44;10542143;28;20648;-62
2021/01/24 22:45:38;;;;;;;29.23;14.83;;;;;;;1.20;99.30;98633.69;10542512;28;20257;-59
2021/01/24 22:50:38;;;;;;;25.57;13.50;;;;;;;0.95;99.35;98644.66;10542197;28;20704;-61
2021/01/24 22:55:39;;;;;;;32.50;14.83;;;;;;;0.70;99.72;98637.19;10540074;28;20664;-62